Waynesville-St. Robert Regional Forney field
KTBN : now visible

Airfield :











YOU CAN JOIN US ON...

 
LOGIN :

Register | Disclaimer

   EN    FR    IT 

 









Legend :    VFR   Marginal VFR   IFR   Intensive IFR   Very Intensive IFR
Visi :
Ceiling :
>= 8 km
>= 3000ft
5 to 8 km
1000 to 3000 ft
1500m to 5 km
500 to 1000 ft
800 to 1500m
200 to 500 ft
< 800m
< 200 ft
Symbols :   Thunderstorms  Fog  Heavy snow  Heavy precipitations  Wind > 20 kt







- Airport Elevation : 1159 ft
- IATA code : TBN


KTBN - Waynesville-St. Robert Regional Forney field

CURRENT METAR :
  • 181056Z AUTO 15006KT 10SM CLR 20/19 A3004 RMK AO2 SLP163 T02040190

EXPIRED METARs :
  • 180956Z AUTO 14006KT 10SM CLR 21/19 A3003 RMK AO2 SLP159 T02050190
  • 180856Z AUTO 14007KT 10SM CLR 21/19 A3004 RMK AO2 SLP163 T02050186 58001

TAF N/A
No reported NOTAMs for that airfield.



MET'MAP, your aeronautical weather chart ! - Copyright ORBIFLY December 2007 - Disclaimer

ORBIFLY MET'MAP TEAM :

Programming & Development : Alexandra Zaïnal
Concept & Development : Baudouin d'Aumeries
Co-Development & Prog : Marc-Olivier Méhu
Technical & hardware support : Manuel Goepfert

Contact : metmap@orbifly.com




SOURCES & CREDITS :

   NOAA       Earth
Advisory